sensor_id;sensor_type;location;lat;lon;timestamp;temperature;humidity
62555;DHT22;48610;52.144;8.624;2023-02-25T00:02:17;4.60;99.90
62555;DHT22;48610;52.144;8.624;2023-02-25T00:05:18;4.60;99.90
62555;DHT22;48610;52.144;8.624;2023-02-25T00:08:18;4.50;99.90
62555;DHT22;48610;52.144;8.624;2023-02-25T00:11:20;4.40;99.90
62555;DHT22;48610;52.144;8.624;2023-02-25T00:14:21;4.40;99.90
62555;DHT22;48610;52.144;8.624;2023-02-25T00:17:22;4.40;99.90
62555;DHT22;48610;52.144;8.624;2023-02-25T00:20:22;4.40;99.90
62555;DHT22;48610;52.144;8.624;2023-02-25T00:23:23;4.50;99.90
62555;DHT22;48610;52.144;8.624;2023-02-25T00:26:24;4.40;99.90
62555;DHT22;48610;52.144;8.624;2023-02-25T00:29:25;4.50;99.90
62555;DHT22;48610;52.144;8.624;2023-02-25T00:32:25;4.60;99.90
62555;DHT22;48610;52.144;8.624;2023-02-25T00:35:26;4.60;99.90
62555;DHT22;48610;52.144;8.624;2023-02-25T00:38:26;4.60;99.90
62555;DHT22;48610;52.144;8.624;2023-02-25T00:41:28;4.60;99.90
62555;DHT22;48610;52.144;8.624;2023-02-25T00:44:30;4.50;99.90
62555;DHT22;48610;52.144;8.624;2023-02-25T00:47:30;4.50;99.90
62555;DHT22;48610;52.144;8.624;2023-02-25T00:50:31;4.50;99.90
62555;DHT22;48610;52.144;8.624;2023-02-25T00:53:32;4.60;99.90
62555;DHT22;48610;52.144;8.624;2023-02-25T00:56:32;4.50;99.90
62555;DHT22;48610;52.144;8.624;2023-02-25T00:59:33;4.40;99.90
62555;DHT22;48610;52.144;8.624;2023-02-25T01:02:34;4.50;99.90
62555;DHT22;48610;52.144;8.624;2023-02-25T01:05:39;4.40;99.90
62555;DHT22;48610;52.144;8.624;2023-02-25T01:08:40;4.50;99.90
62555;DHT22;48610;52.144;8.624;2023-02-25T01:11:44;4.40;99.90
62555;DHT22;48610;52.144;8.624;2023-02-25T01:14:45;4.40;99.90
62555;DHT22;48610;52.144;8.624;2023-02-25T01:17:46;4.40;99.90
62555;DHT22;48610;52.144;8.624;2023-02-25T01:20:46;4.40;99.90
62555;DHT22;48610;52.144;8.624;2023-02-25T01:23:48;4.40;99.90
62555;DHT22;48610;52.144;8.624;2023-02-25T01:26:50;4.40;99.90
62555;DHT22;48610;52.144;8.624;2023-02-25T01:29:51;4.40;99.90
62555;DHT22;48610;52.144;8.624;2023-02-25T01:32:51;4.40;99.90
62555;DHT22;48610;52.144;8.624;2023-02-25T01:35:52;4.40;99.90
62555;DHT22;48610;52.144;8.624;2023-02-25T01:38:52;4.40;99.90
62555;DHT22;48610;52.144;8.624;2023-02-25T01:41:55;4.30;99.90
62555;DHT22;48610;52.144;8.624;2023-02-25T01:48:40;4.40;99.90
62555;DHT22;48610;52.144;8.624;2023-02-25T01:51:41;4.40;99.90
62555;DHT22;48610;52.144;8.624;2023-02-25T01:54:46;4.40;99.90
62555;DHT22;48610;52.144;8.624;2023-02-25T01:57:47;4.40;99.90
62555;DHT22;48610;52.144;8.624;2023-02-25T02:00:49;4.50;99.90
62555;DHT22;48610;52.144;8.624;2023-02-25T02:03:54;4.40;99.90
62555;DHT22;48610;52.144;8.624;2023-02-25T02:06:56;4.40;99.90
62555;DHT22;48610;52.144;8.624;2023-02-25T02:09:57;4.40;99.90
62555;DHT22;48610;52.144;8.624;2023-02-25T02:12:59;4.50;99.90
62555;DHT22;48610;52.144;8.624;2023-02-25T02:16:13;4.40;99.90
62555;DHT22;48610;52.144;8.624;2023-02-25T02:26:43;4.50;99.90
62555;DHT22;48610;52.144;8.624;2023-02-25T02:46:37;4.40;99.90
62555;DHT22;48610;52.144;8.624;2023-02-25T02:53:08;4.50;99.90
62555;DHT22;48610;52.144;8.624;2023-02-25T02:56:13;4.40;99.90
62555;DHT22;48610;52.144;8.624;2023-02-25T02:59:52;4.50;99.90
62555;DHT22;48610;52.144;8.624;2023-02-25T03:03:31;4.50;99.90
62555;DHT22;48610;52.144;8.624;2023-02-25T03:06:47;4.50;99.90
62555;DHT22;48610;52.144;8.624;2023-02-25T03:09:53;4.50;99.90
62555;DHT22;48610;52.144;8.624;2023-02-25T03:12:54;4.50;99.90
62555;DHT22;48610;52.144;8.624;2023-02-25T03:15:57;4.40;99.90
62555;DHT22;48610;52.144;8.624;2023-02-25T03:22:12;4.60;99.90
62555;DHT22;48610;52.144;8.624;2023-02-25T03:25:24;4.60;99.90
62555;DHT22;48610;52.144;8.624;2023-02-25T03:28:28;4.50;99.90
62555;DHT22;48610;52.144;8.624;2023-02-25T03:35:08;4.60;99.90
62555;DHT22;48610;52.144;8.624;2023-02-25T03:38:18;4.60;99.90
62555;DHT22;48610;52.144;8.624;2023-02-25T03:41:20;4.50;99.90
62555;DHT22;48610;52.144;8.624;2023-02-25T03:44:32;4.40;99.90
62555;DHT22;48610;52.144;8.624;2023-02-25T03:47:35;4.40;99.90
62555;DHT22;48610;52.144;8.624;2023-02-25T03:50:41;4.40;99.90
62555;DHT22;48610;52.144;8.624;2023-02-25T03:53:43;4.40;99.90
62555;DHT22;48610;52.144;8.624;2023-02-25T03:56:46;4.40;99.90
62555;DHT22;48610;52.144;8.624;2023-02-25T03:59:47;4.40;99.90
62555;DHT22;48610;52.144;8.624;2023-02-25T04:02:49;4.40;99.90
62555;DHT22;48610;52.144;8.624;2023-02-25T04:05:49;4.50;99.90
62555;DHT22;48610;52.144;8.624;2023-02-25T04:08:50;4.40;99.90
62555;DHT22;48610;52.144;8.624;2023-02-25T04:11:51;4.50;99.90
62555;DHT22;48610;52.144;8.624;2023-02-25T04:14:56;4.60;99.90
62555;DHT22;48610;52.144;8.624;2023-02-25T04:17:56;4.50;99.90
62555;DHT22;48610;52.144;8.624;2023-02-25T04:20:57;4.60;99.90
62555;DHT22;48610;52.144;8.624;2023-02-25T04:23:58;4.50;99.90
62555;DHT22;48610;52.144;8.624;2023-02-25T04:26:58;4.40;99.90
62555;DHT22;48610;52.144;8.624;2023-02-25T04:30:01;4.40;99.90
62555;DHT22;48610;52.144;8.624;2023-02-25T04:33:02;4.40;99.90
62555;DHT22;48610;52.144;8.624;2023-02-25T04:36:03;4.50;99.90
62555;DHT22;48610;52.144;8.624;2023-02-25T04:39:04;4.40;99.90
62555;DHT22;48610;52.144;8.624;2023-02-25T04:42:05;4.30;99.90
62555;DHT22;48610;52.144;8.624;2023-02-25T04:45:07;4.40;99.90
62555;DHT22;48610;52.144;8.624;2023-02-25T04:48:08;4.40;99.90
62555;DHT22;48610;52.144;8.624;2023-02-25T04:51:08;4.30;99.90
62555;DHT22;48610;52.144;8.624;2023-02-25T04:54:09;4.40;99.90
62555;DHT22;48610;52.144;8.624;2023-02-25T04:57:11;4.40;99.90
62555;DHT22;48610;52.144;8.624;2023-02-25T05:03:16;4.30;99.90
62555;DHT22;48610;52.144;8.624;2023-02-25T05:06:16;4.30;99.90
62555;DHT22;48610;52.144;8.624;2023-02-25T05:09:17;4.40;99.90
62555;DHT22;48610;52.144;8.624;2023-02-25T05:12:17;4.30;99.90
62555;DHT22;48610;52.144;8.624;2023-02-25T05:15:18;4.40;99.90
62555;DHT22;48610;52.144;8.624;2023-02-25T05:18:19;4.40;99.90
62555;DHT22;48610;52.144;8.624;2023-02-25T05:21:23;4.50;99.90
62555;DHT22;48610;52.144;8.624;2023-02-25T05:24:24;4.50;99.90
62555;DHT22;48610;52.144;8.624;2023-02-25T05:27:24;4.50;99.90
62555;DHT22;48610;52.144;8.624;2023-02-25T05:30:25;4.50;99.90
62555;DHT22;48610;52.144;8.624;2023-02-25T05:33:25;4.40;99.90
62555;DHT22;48610;52.144;8.624;2023-02-25T05:36:26;4.40;99.90
62555;DHT22;48610;52.144;8.624;2023-02-25T05:39:27;4.30;99.90
62555;DHT22;48610;52.144;8.624;2023-02-25T05:42:27;4.30;99.90
62555;DHT22;48610;52.144;8.624;2023-02-25T05:45:28;4.30;99.90
62555;DHT22;48610;52.144;8.624;2023-02-25T05:48:30;4.30;99.90
62555;DHT22;48610;52.144;8.624;2023-02-25T05:51:30;4.30;99.90
62555;DHT22;48610;52.144;8.624;2023-02-25T05:54:31;4.30;99.90
62555;DHT22;48610;52.144;8.624;2023-02-25T05:57:32;4.30;99.90
62555;DHT22;48610;52.144;8.624;2023-02-25T06:00:32;4.30;99.90
62555;DHT22;48610;52.144;8.624;2023-02-25T06:03:33;4.30;99.90
62555;DHT22;48610;52.144;8.624;2023-02-25T06:06:33;4.40;99.90
62555;DHT22;48610;52.144;8.624;2023-02-25T06:09:34;4.40;99.90
62555;DHT22;48610;52.144;8.624;2023-02-25T06:12:35;4.40;99.90
62555;DHT22;48610;52.144;8.624;2023-02-25T06:15:38;4.40;99.90
62555;DHT22;48610;52.144;8.624;2023-02-25T06:18:39;4.40;99.90
62555;DHT22;48610;52.144;8.624;2023-02-25T06:21:39;4.30;99.90
62555;DHT22;48610;52.144;8.624;2023-02-25T06:24:40;4.40;99.90
62555;DHT22;48610;52.144;8.624;2023-02-25T06:27:40;4.50;99.90
62555;DHT22;48610;52.144;8.624;2023-02-25T06:30:41;4.50;99.90
62555;DHT22;48610;52.144;8.624;2023-02-25T06:33:42;4.50;99.90
62555;DHT22;48610;52.144;8.624;2023-02-25T06:36:42;4.50;99.90
62555;DHT22;48610;52.144;8.624;2023-02-25T06:39:43;4.40;99.90
62555;DHT22;48610;52.144;8.624;2023-02-25T06:42:43;4.30;99.90
62555;DHT22;48610;52.144;8.624;2023-02-25T06:45:44;4.40;99.90
62555;DHT22;48610;52.144;8.624;2023-02-25T06:48:45;4.50;99.90
62555;DHT22;48610;52.144;8.624;2023-02-25T06:51:46;4.50;99.90
62555;DHT22;48610;52.144;8.624;2023-02-25T06:54:49;4.40;99.90
62555;DHT22;48610;52.144;8.624;2023-02-25T06:57:49;4.40;99.90
62555;DHT22;48610;52.144;8.624;2023-02-25T07:00:50;4.40;99.90
62555;DHT22;48610;52.144;8.624;2023-02-25T07:03:51;4.30;99.90
62555;DHT22;48610;52.144;8.624;2023-02-25T07:06:52;4.40;99.90
62555;DHT22;48610;52.144;8.624;2023-02-25T07:09:52;4.40;99.90
62555;DHT22;48610;52.144;8.624;2023-02-25T07:12:53;4.40;99.90
62555;DHT22;48610;52.144;8.624;2023-02-25T07:15:53;4.50;99.90
62555;DHT22;48610;52.144;8.624;2023-02-25T07:18:55;4.50;99.90
62555;DHT22;48610;52.144;8.624;2023-02-25T07:21:56;4.60;99.90
62555;DHT22;48610;52.144;8.624;2023-02-25T07:24:56;4.60;99.90
62555;DHT22;48610;52.144;8.624;2023-02-25T07:27:57;4.50;99.90
62555;DHT22;48610;52.144;8.624;2023-02-25T07:31:13;4.60;99.90
62555;DHT22;48610;52.144;8.624;2023-02-25T07:34:13;4.50;99.90
62555;DHT22;48610;52.144;8.624;2023-02-25T07:37:14;4.50;99.90
62555;DHT22;48610;52.144;8.624;2023-02-25T07:40:15;4.60;99.90
62555;DHT22;48610;52.144;8.624;2023-02-25T07:43:16;4.60;99.90
62555;DHT22;48610;52.144;8.624;2023-02-25T07:46:16;4.60;99.90
62555;DHT22;48610;52.144;8.624;2023-02-25T07:49:17;4.70;99.90
62555;DHT22;48610;52.144;8.624;2023-02-25T07:52:17;4.70;99.90
62555;DHT22;48610;52.144;8.624;2023-02-25T07:55:18;4.70;99.90
62555;DHT22;48610;52.144;8.624;2023-02-25T07:58:19;4.80;99.90
62555;DHT22;48610;52.144;8.624;2023-02-25T08:01:25;4.80;99.90
62555;DHT22;48610;52.144;8.624;2023-02-25T08:04:26;4.80;99.90
62555;DHT22;48610;52.144;8.624;2023-02-25T08:07:29;4.90;99.90
62555;DHT22;48610;52.144;8.624;2023-02-25T08:10:30;4.90;99.90
62555;DHT22;48610;52.144;8.624;2023-02-25T08:13:31;5.00;99.90
62555;DHT22;48610;52.144;8.624;2023-02-25T08:16:32;5.00;99.90
62555;DHT22;48610;52.144;8.624;2023-02-25T08:19:32;5.10;99.90
62555;DHT22;48610;52.144;8.624;2023-02-25T08:22:33;5.10;99.90
62555;DHT22;48610;52.144;8.624;2023-02-25T08:25:34;5.20;99.90
62555;DHT22;48610;52.144;8.624;2023-02-25T08:28:35;5.20;99.90
62555;DHT22;48610;52.144;8.624;2023-02-25T08:31:36;5.10;99.90
62555;DHT22;48610;52.144;8.624;2023-02-25T08:34:36;5.20;99.90
62555;DHT22;48610;52.144;8.624;2023-02-25T08:37:37;5.40;99.90
62555;DHT22;48610;52.144;8.624;2023-02-25T08:40:38;5.50;99.90
62555;DHT22;48610;52.144;8.624;2023-02-25T08:43:39;5.60;99.90
62555;DHT22;48610;52.144;8.624;2023-02-25T08:46:40;5.60;99.90
62555;DHT22;48610;52.144;8.624;2023-02-25T08:49:41;5.40;99.90
62555;DHT22;48610;52.144;8.624;2023-02-25T08:52:42;5.20;99.90
62555;DHT22;48610;52.144;8.624;2023-02-25T08:55:42;4.90;99.90
62555;DHT22;48610;52.144;8.624;2023-02-25T08:58:43;4.80;99.90
62555;DHT22;48610;52.144;8.624;2023-02-25T09:01:44;4.70;99.90
62555;DHT22;48610;52.144;8.624;2023-02-25T09:04:45;4.70;99.90
62555;DHT22;48610;52.144;8.624;2023-02-25T09:07:45;4.60;99.90
62555;DHT22;48610;52.144;8.624;2023-02-25T09:10:46;4.70;99.90
62555;DHT22;48610;52.144;8.624;2023-02-25T09:13:47;5.30;99.90
62555;DHT22;48610;52.144;8.624;2023-02-25T09:16:48;5.50;99.90
62555;DHT22;48610;52.144;8.624;2023-02-25T09:19:48;5.70;99.90
62555;DHT22;48610;52.144;8.624;2023-02-25T09:22:49;5.90;99.90
62555;DHT22;48610;52.144;8.624;2023-02-25T09:25:49;5.80;99.90
62555;DHT22;48610;52.144;8.624;2023-02-25T09:28:50;6.20;99.90
62555;DHT22;48610;52.144;8.624;2023-02-25T09:31:51;6.40;99.90
62555;DHT22;48610;52.144;8.624;2023-02-25T09:34:53;6.60;99.90
62555;DHT22;48610;52.144;8.624;2023-02-25T09:37:53;6.70;99.90
62555;DHT22;48610;52.144;8.624;2023-02-25T09:40:54;6.50;99.90
62555;DHT22;48610;52.144;8.624;2023-02-25T09:47:14;6.70;99.90
62555;DHT22;48610;52.144;8.624;2023-02-25T09:50:44;6.30;99.90
62555;DHT22;48610;52.144;8.624;2023-02-25T09:57:12;5.60;99.90
62555;DHT22;48610;52.144;8.624;2023-02-25T10:00:18;4.70;99.90
62555;DHT22;48610;52.144;8.624;2023-02-25T10:03:38;4.20;99.90
62555;DHT22;48610;52.144;8.624;2023-02-25T10:06:46;4.00;99.90
62555;DHT22;48610;52.144;8.624;2023-02-25T10:09:55;4.00;99.90
62555;DHT22;48610;52.144;8.624;2023-02-25T10:13:12;4.20;99.90
62555;DHT22;48610;52.144;8.624;2023-02-25T10:23:09;4.30;99.90
62555;DHT22;48610;52.144;8.624;2023-02-25T10:26:17;4.60;99.90
62555;DHT22;48610;52.144;8.624;2023-02-25T10:29:39;4.80;99.90
62555;DHT22;48610;52.144;8.624;2023-02-25T10:32:42;5.00;99.90
62555;DHT22;48610;52.144;8.624;2023-02-25T10:35:44;5.50;99.90
62555;DHT22;48610;52.144;8.624;2023-02-25T10:38:50;6.00;99.90
62555;DHT22;48610;52.144;8.624;2023-02-25T10:41:51;6.40;99.90
62555;DHT22;48610;52.144;8.624;2023-02-25T10:44:53;6.60;99.90
62555;DHT22;48610;52.144;8.624;2023-02-25T10:51:14;5.90;99.90
62555;DHT22;48610;52.144;8.624;2023-02-25T10:54:14;5.20;99.90
62555;DHT22;48610;52.144;8.624;2023-02-25T10:57:27;5.40;99.90
62555;DHT22;48610;52.144;8.624;2023-02-25T11:00:36;5.70;99.90
62555;DHT22;48610;52.144;8.624;2023-02-25T11:03:51;5.90;99.90
62555;DHT22;48610;52.144;8.624;2023-02-25T11:06:52;6.60;99.90
62555;DHT22;48610;52.144;8.624;2023-02-25T11:10:17;7.20;99.90
62555;DHT22;48610;52.144;8.624;2023-02-25T11:13:30;7.50;99.10
62555;DHT22;48610;52.144;8.624;2023-02-25T11:16:35;7.10;98.70
62555;DHT22;48610;52.144;8.624;2023-02-25T11:19:45;6.40;99.40
62555;DHT22;48610;52.144;8.624;2023-02-25T11:22:51;5.80;99.30
62555;DHT22;48610;52.144;8.624;2023-02-25T11:25:52;5.90;99.90
62555;DHT22;48610;52.144;8.624;2023-02-25T11:28:54;6.50;98.40
62555;DHT22;48610;52.144;8.624;2023-02-25T11:32:05;7.30;98.80
62555;DHT22;48610;52.144;8.624;2023-02-25T11:35:14;7.00;96.50
62555;DHT22;48610;52.144;8.624;2023-02-25T11:41:29;7.20;97.20
62555;DHT22;48610;52.144;8.624;2023-02-25T11:44:42;7.60;96.60
62555;DHT22;48610;52.144;8.624;2023-02-25T11:47:44;7.50;95.20
62555;DHT22;48610;52.144;8.624;2023-02-25T11:51:36;7.60;95.60
62555;DHT22;48610;52.144;8.624;2023-02-25T11:54:33;7.00;95.90
62555;DHT22;48610;52.144;8.624;2023-02-25T12:01:45;6.40;96.30
62555;DHT22;48610;52.144;8.624;2023-02-25T12:18:47;6.30;98.10
62555;DHT22;48610;52.144;8.624;2023-02-25T12:25:42;6.60;97.50
62555;DHT22;48610;52.144;8.624;2023-02-25T12:43:10;6.20;92.60
62555;DHT22;48610;52.144;8.624;2023-02-25T12:46:40;6.30;94.90
62555;DHT22;48610;52.144;8.624;2023-02-25T12:53:45;5.70;96.70
62555;DHT22;48610;52.144;8.624;2023-02-25T13:04:03;5.90;99.20
62555;DHT22;48610;52.144;8.624;2023-02-25T13:11:00;6.70;96.30
62555;DHT22;48610;52.144;8.624;2023-02-25T13:24:05;6.30;97.00
62555;DHT22;48610;52.144;8.624;2023-02-25T13:31:00;6.10;99.90
62555;DHT22;48610;52.144;8.624;2023-02-25T13:34:45;6.00;99.90
62555;DHT22;48610;52.144;8.624;2023-02-25T13:48:33;7.40;94.20
62555;DHT22;48610;52.144;8.624;2023-02-25T13:52:09;6.60;94.70
62555;DHT22;48610;52.144;8.624;2023-02-25T14:02:40;5.80;96.80
62555;DHT22;48610;52.144;8.624;2023-02-25T14:06:01;6.30;94.70
62555;DHT22;48610;52.144;8.624;2023-02-25T14:10:03;6.90;93.90
62555;DHT22;48610;52.144;8.624;2023-02-25T14:16:17;6.60;95.30
62555;DHT22;48610;52.144;8.624;2023-02-25T14:37:05;6.60;93.00
62555;DHT22;48610;52.144;8.624;2023-02-25T14:43:47;6.50;94.70
62555;DHT22;48610;52.144;8.624;2023-02-25T14:46:44;6.10;91.60
62555;DHT22;48610;52.144;8.624;2023-02-25T14:49:58;6.00;93.30
62555;DHT22;48610;52.144;8.624;2023-02-25T15:00:48;6.50;91.80
62555;DHT22;48610;52.144;8.624;2023-02-25T15:20:47;6.00;92.50
62555;DHT22;48610;52.144;8.624;2023-02-25T15:23:50;5.90;92.80
62555;DHT22;48610;52.144;8.624;2023-02-25T15:26:51;6.00;93.40
62555;DHT22;48610;52.144;8.624;2023-02-25T15:29:58;5.70;94.90
62555;DHT22;48610;52.144;8.624;2023-02-25T15:36:01;5.10;94.70
62555;DHT22;48610;52.144;8.624;2023-02-25T15:42:49;5.00;92.60
62555;DHT22;48610;52.144;8.624;2023-02-25T15:46:23;5.00;93.30
62555;DHT22;48610;52.144;8.624;2023-02-25T15:49:21;5.10;93.50
62555;DHT22;48610;52.144;8.624;2023-02-25T15:52:49;5.10;94.20
62555;DHT22;48610;52.144;8.624;2023-02-25T15:59:02;5.10;94.90
62555;DHT22;48610;52.144;8.624;2023-02-25T16:02:29;5.10;95.00
62555;DHT22;48610;52.144;8.624;2023-02-25T16:05:34;5.10;95.00
62555;DHT22;48610;52.144;8.624;2023-02-25T16:08:38;5.10;95.50
62555;DHT22;48610;52.144;8.624;2023-02-25T16:11:44;5.00;95.70
62555;DHT22;48610;52.144;8.624;2023-02-25T16:14:45;4.90;96.50
62555;DHT22;48610;52.144;8.624;2023-02-25T16:17:47;5.00;95.90
62555;DHT22;48610;52.144;8.624;2023-02-25T16:20:50;5.10;96.40
62555;DHT22;48610;52.144;8.624;2023-02-25T16:23:53;4.90;96.60
62555;DHT22;48610;52.144;8.624;2023-02-25T16:26:57;4.80;96.70
62555;DHT22;48610;52.144;8.624;2023-02-25T16:30:21;4.70;98.00
62555;DHT22;48610;52.144;8.624;2023-02-25T16:33:44;4.70;98.50
62555;DHT22;48610;52.144;8.624;2023-02-25T16:37:34;4.70;98.90
62555;DHT22;48610;52.144;8.624;2023-02-25T16:40:41;4.60;98.90
62555;DHT22;48610;52.144;8.624;2023-02-25T16:43:43;4.30;99.30
62555;DHT22;48610;52.144;8.624;2023-02-25T16:46:48;4.30;99.90
62555;DHT22;48610;52.144;8.624;2023-02-25T16:49:52;4.30;99.90
62555;DHT22;48610;52.144;8.624;2023-02-25T16:52:53;4.30;99.90
62555;DHT22;48610;52.144;8.624;2023-02-25T16:55:58;4.30;99.90
62555;DHT22;48610;52.144;8.624;2023-02-25T17:05:32;4.10;99.90
62555;DHT22;48610;52.144;8.624;2023-02-25T17:08:34;4.10;99.90
62555;DHT22;48610;52.144;8.624;2023-02-25T17:11:35;4.10;99.90
62555;DHT22;48610;52.144;8.624;2023-02-25T17:14:36;4.20;99.90
62555;DHT22;48610;52.144;8.624;2023-02-25T17:17:39;4.10;99.90
62555;DHT22;48610;52.144;8.624;2023-02-25T17:20:40;4.10;99.90
62555;DHT22;48610;52.144;8.624;2023-02-25T17:23:42;3.90;99.90
62555;DHT22;48610;52.144;8.624;2023-02-25T17:26:46;3.90;99.90
62555;DHT22;48610;52.144;8.624;2023-02-25T17:29:47;3.80;99.90
62555;DHT22;48610;52.144;8.624;2023-02-25T17:32:54;3.80;99.90
62555;DHT22;48610;52.144;8.624;2023-02-25T17:36:03;3.80;99.90
62555;DHT22;48610;52.144;8.624;2023-02-25T17:39:07;3.90;99.90
62555;DHT22;48610;52.144;8.624;2023-02-25T17:42:31;3.80;99.90
62555;DHT22;48610;52.144;8.624;2023-02-25T17:45:39;3.80;99.90
62555;DHT22;48610;52.144;8.624;2023-02-25T17:48:42;3.80;99.90
62555;DHT22;48610;52.144;8.624;2023-02-25T17:51:45;3.80;99.90
62555;DHT22;48610;52.144;8.624;2023-02-25T17:54:48;3.90;99.90
62555;DHT22;48610;52.144;8.624;2023-02-25T17:57:51;3.90;99.90
62555;DHT22;48610;52.144;8.624;2023-02-25T18:01:00;4.00;99.90
62555;DHT22;48610;52.144;8.624;2023-02-25T18:04:05;4.00;99.90
62555;DHT22;48610;52.144;8.624;2023-02-25T18:07:21;3.90;99.90
62555;DHT22;48610;52.144;8.624;2023-02-25T18:13:35;3.30;99.90
62555;DHT22;48610;52.144;8.624;2023-02-25T18:16:40;3.10;99.90
62555;DHT22;48610;52.144;8.624;2023-02-25T18:19:42;3.20;99.90
62555;DHT22;48610;52.144;8.624;2023-02-25T18:22:47;3.10;99.90
62555;DHT22;48610;52.144;8.624;2023-02-25T18:29:11;3.40;99.90
62555;DHT22;48610;52.144;8.624;2023-02-25T18:32:12;3.20;99.90
62555;DHT22;48610;52.144;8.624;2023-02-25T18:35:13;3.20;99.90
62555;DHT22;48610;52.144;8.624;2023-02-25T18:38:32;3.30;99.90
62555;DHT22;48610;52.144;8.624;2023-02-25T18:41:36;3.10;99.90
62555;DHT22;48610;52.144;8.624;2023-02-25T18:44:37;3.00;99.90
62555;DHT22;48610;52.144;8.624;2023-02-25T18:47:38;3.10;99.90
62555;DHT22;48610;52.144;8.624;2023-02-25T18:50:39;3.00;99.90
62555;DHT22;48610;52.144;8.624;2023-02-25T18:53:41;3.20;99.90
62555;DHT22;48610;52.144;8.624;2023-02-25T18:56:42;3.40;99.90
62555;DHT22;48610;52.144;8.624;2023-02-25T18:59:42;3.30;99.90
62555;DHT22;48610;52.144;8.624;2023-02-25T19:02:51;3.00;99.90
62555;DHT22;48610;52.144;8.624;2023-02-25T19:05:52;2.60;99.90
62555;DHT22;48610;52.144;8.624;2023-02-25T19:08:53;2.70;99.90
62555;DHT22;48610;52.144;8.624;2023-02-25T19:11:53;2.60;99.90
62555;DHT22;48610;52.144;8.624;2023-02-25T19:14:58;2.60;99.90
62555;DHT22;48610;52.144;8.624;2023-02-25T19:17:59;2.50;99.90
62555;DHT22;48610;52.144;8.624;2023-02-25T19:20:59;2.50;99.90
62555;DHT22;48610;52.144;8.624;2023-02-25T19:24:00;2.50;99.90
62555;DHT22;48610;52.144;8.624;2023-02-25T19:27:00;2.40;99.90
62555;DHT22;48610;52.144;8.624;2023-02-25T19:30:02;2.50;99.90
62555;DHT22;48610;52.144;8.624;2023-02-25T19:33:03;2.40;99.90
62555;DHT22;48610;52.144;8.624;2023-02-25T19:36:04;2.40;99.90
62555;DHT22;48610;52.144;8.624;2023-02-25T19:39:04;2.40;99.90
62555;DHT22;48610;52.144;8.624;2023-02-25T19:42:07;2.50;99.90
62555;DHT22;48610;52.144;8.624;2023-02-25T19:45:11;2.40;99.90
62555;DHT22;48610;52.144;8.624;2023-02-25T19:48:12;2.30;99.90
62555;DHT22;48610;52.144;8.624;2023-02-25T19:51:13;2.20;99.90
62555;DHT22;48610;52.144;8.624;2023-02-25T19:54:13;2.30;99.90
62555;DHT22;48610;52.144;8.624;2023-02-25T19:57:14;2.10;99.90
62555;DHT22;48610;52.144;8.624;2023-02-25T20:00:23;2.30;99.90
62555;DHT22;48610;52.144;8.624;2023-02-25T20:03:24;2.20;99.90
62555;DHT22;48610;52.144;8.624;2023-02-25T20:06:25;2.10;99.90
62555;DHT22;48610;52.144;8.624;2023-02-25T20:09:26;1.90;99.90
62555;DHT22;48610;52.144;8.624;2023-02-25T20:12:26;2.00;99.90
62555;DHT22;48610;52.144;8.624;2023-02-25T20:15:27;2.10;99.90
62555;DHT22;48610;52.144;8.624;2023-02-25T20:18:28;2.20;99.90
62555;DHT22;48610;52.144;8.624;2023-02-25T20:21:28;2.30;99.90
62555;DHT22;48610;52.144;8.624;2023-02-25T20:24:31;2.50;99.90
62555;DHT22;48610;52.144;8.624;2023-02-25T20:27:32;2.50;99.90
62555;DHT22;48610;52.144;8.624;2023-02-25T20:30:36;2.50;99.90
62555;DHT22;48610;52.144;8.624;2023-02-25T20:33:38;2.60;99.90
62555;DHT22;48610;52.144;8.624;2023-02-25T20:37:03;2.40;99.90
62555;DHT22;48610;52.144;8.624;2023-02-25T20:40:06;2.30;99.90
62555;DHT22;48610;52.144;8.624;2023-02-25T20:43:08;2.30;99.90
62555;DHT22;48610;52.144;8.624;2023-02-25T20:46:22;2.30;99.90
62555;DHT22;48610;52.144;8.624;2023-02-25T20:49:24;2.30;99.90
62555;DHT22;48610;52.144;8.624;2023-02-25T20:52:25;2.30;99.90
62555;DHT22;48610;52.144;8.624;2023-02-25T20:55:29;2.30;99.90
62555;DHT22;48610;52.144;8.624;2023-02-25T20:58:29;2.20;99.90
62555;DHT22;48610;52.144;8.624;2023-02-25T21:01:30;2.20;99.90
62555;DHT22;48610;52.144;8.624;2023-02-25T21:04:31;2.10;99.90
62555;DHT22;48610;52.144;8.624;2023-02-25T21:07:31;2.00;99.90
62555;DHT22;48610;52.144;8.624;2023-02-25T21:10:32;1.80;99.90
62555;DHT22;48610;52.144;8.624;2023-02-25T21:13:33;1.90;99.90
62555;DHT22;48610;52.144;8.624;2023-02-25T21:16:36;2.00;99.90
62555;DHT22;48610;52.144;8.624;2023-02-25T21:19:37;1.70;99.90
62555;DHT22;48610;52.144;8.624;2023-02-25T21:22:38;1.80;99.90
62555;DHT22;48610;52.144;8.624;2023-02-25T21:25:38;1.80;99.90
62555;DHT22;48610;52.144;8.624;2023-02-25T21:28:39;1.70;99.90
62555;DHT22;48610;52.144;8.624;2023-02-25T21:31:43;1.70;99.90
62555;DHT22;48610;52.144;8.624;2023-02-25T21:34:44;1.60;99.90
62555;DHT22;48610;52.144;8.624;2023-02-25T21:37:45;1.50;99.90
62555;DHT22;48610;52.144;8.624;2023-02-25T21:40:46;1.60;99.90
62555;DHT22;48610;52.144;8.624;2023-02-25T21:43:47;1.70;99.90
62555;DHT22;48610;52.144;8.624;2023-02-25T21:46:47;1.60;99.90
62555;DHT22;48610;52.144;8.624;2023-02-25T21:49:48;1.50;99.90
62555;DHT22;48610;52.144;8.624;2023-02-25T21:52:50;1.50;99.90
62555;DHT22;48610;52.144;8.624;2023-02-25T21:55:51;1.50;99.90
62555;DHT22;48610;52.144;8.624;2023-02-25T21:58:55;1.50;99.90
62555;DHT22;48610;52.144;8.624;2023-02-25T22:01:56;1.50;99.90
62555;DHT22;48610;52.144;8.624;2023-02-25T22:04:57;1.50;99.90
62555;DHT22;48610;52.144;8.624;2023-02-25T22:07:58;1.60;99.90
62555;DHT22;48610;52.144;8.624;2023-02-25T22:10:58;1.50;99.90
62555;DHT22;48610;52.144;8.624;2023-02-25T22:14:00;1.50;99.90
62555;DHT22;48610;52.144;8.624;2023-02-25T22:17:01;1.50;99.90
62555;DHT22;48610;52.144;8.624;2023-02-25T22:20:05;1.40;99.90
62555;DHT22;48610;52.144;8.624;2023-02-25T22:23:06;1.30;99.90
62555;DHT22;48610;52.144;8.624;2023-02-25T22:26:09;1.40;99.90
62555;DHT22;48610;52.144;8.624;2023-02-25T22:29:10;1.50;99.90
62555;DHT22;48610;52.144;8.624;2023-02-25T22:32:10;1.40;99.90
62555;DHT22;48610;52.144;8.624;2023-02-25T22:35:11;1.40;99.90
62555;DHT22;48610;52.144;8.624;2023-02-25T22:38:11;1.50;99.90
62555;DHT22;48610;52.144;8.624;2023-02-25T22:41:15;1.50;99.90
62555;DHT22;48610;52.144;8.624;2023-02-25T22:44:16;1.50;99.90
62555;DHT22;48610;52.144;8.624;2023-02-25T22:47:17;1.60;99.90
62555;DHT22;48610;52.144;8.624;2023-02-25T22:50:17;1.40;99.90
62555;DHT22;48610;52.144;8.624;2023-02-25T22:53:18;1.50;99.90
62555;DHT22;48610;52.144;8.624;2023-02-25T22:56:19;1.60;99.90
62555;DHT22;48610;52.144;8.624;2023-02-25T22:59:19;1.70;99.90
62555;DHT22;48610;52.144;8.624;2023-02-25T23:02:20;1.60;99.90
62555;DHT22;48610;52.144;8.624;2023-02-25T23:05:21;1.60;99.90
62555;DHT22;48610;52.144;8.624;2023-02-25T23:08:22;1.30;99.90
62555;DHT22;48610;52.144;8.624;2023-02-25T23:11:26;1.20;99.90
62555;DHT22;48610;52.144;8.624;2023-02-25T23:14:26;1.20;99.90
62555;DHT22;48610;52.144;8.624;2023-02-25T23:17:27;1.30;99.90